createdAt,value
2022-09-20T00:01:32.031Z,72.11
2022-09-20T00:04:00.489Z,72.42
2022-09-20T00:06:29.793Z,71.34
2022-09-20T00:08:57.377Z,71.70
2022-09-20T00:11:26.617Z,72.19
2022-09-20T00:13:56.055Z,71.12
2022-09-20T00:16:26.117Z,70.93
2022-09-20T00:18:55.080Z,72.22
2022-09-20T00:21:24.847Z,72.26
2022-09-20T00:23:54.980Z,71.88
2022-09-20T00:26:21.832Z,71.75
2022-09-20T00:28:48.584Z,71.77
2022-09-20T00:31:15.693Z,71.09
2022-09-20T00:34:01.014Z,71.05
2022-09-20T00:36:27.617Z,71.07
2022-09-20T00:38:59.823Z,70.88
2022-09-20T00:41:27.279Z,70.93
2022-09-20T00:43:54.372Z,70.81
2022-09-20T00:46:35.444Z,70.88
2022-09-20T00:49:12.201Z,71.61
2022-09-20T00:51:43.123Z,70.88
2022-09-20T00:54:11.715Z,70.55
2022-09-20T00:56:43.933Z,71.06
2022-09-20T00:59:26.298Z,71.48
2022-09-20T01:01:57.699Z,71.04
2022-09-20T01:04:27.453Z,70.61
2022-09-20T01:06:57.490Z,71.32
2022-09-20T01:09:23.905Z,70.82
2022-09-20T01:11:52.066Z,70.60
2022-09-20T01:14:19.540Z,71.10
2022-09-20T01:16:46.111Z,71.20
2022-09-20T01:19:25.361Z,71.17
2022-09-20T01:21:53.299Z,71.99
2022-09-20T01:24:31.513Z,72.13
2022-09-20T01:27:11.726Z,73.06
2022-09-20T01:29:55.388Z,73.59
2022-09-20T01:32:25.515Z,73.78
2022-09-20T01:34:59.860Z,73.36
2022-09-20T01:37:42.818Z,73.60
2022-09-20T01:40:32.209Z,73.14
2022-09-20T01:43:11.766Z,72.19
2022-09-20T01:45:45.032Z,71.98
2022-09-20T01:48:29.611Z,71.51
2022-09-20T01:51:14.905Z,71.67
2022-09-20T01:54:09.226Z,73.00
2022-09-20T01:57:13.260Z,73.33
2022-09-20T01:59:50.613Z,73.21
2022-09-20T02:02:29.166Z,72.70
2022-09-20T02:05:32.995Z,71.87
2022-09-20T02:08:07.750Z,71.85
2022-09-20T02:11:03.554Z,72.33
2022-09-20T02:13:33.259Z,72.13
2022-09-20T02:16:22.841Z,72.10
2022-09-20T02:19:09.535Z,73.08
2022-09-20T02:21:42.899Z,73.89
2022-09-20T02:24:21.114Z,74.53
2022-09-20T02:27:17.460Z,74.58
2022-09-20T02:30:11.337Z,73.54
2022-09-20T02:32:48.152Z,74.59
2022-09-20T02:35:42.181Z,74.09
2022-09-20T02:38:31.065Z,73.16
2022-09-20T02:41:23.660Z,73.35
2022-09-20T02:44:07.359Z,73.18
2022-09-20T02:47:00.799Z,73.78
2022-09-20T02:49:33.830Z,73.98
2022-09-20T02:52:33.313Z,74.15
2022-09-20T02:55:14.619Z,74.95
2022-09-20T02:58:00.930Z,74.75
2022-09-20T03:00:53.797Z,74.36
2022-09-20T03:03:34.547Z,73.73
2022-09-20T03:06:27.261Z,75.33
2022-09-20T03:09:31.303Z,75.93
2022-09-20T03:12:43.222Z,74.43
2022-09-20T03:15:51.629Z,74.73
2022-09-20T03:18:43.052Z,74.64
2022-09-20T03:21:40.375Z,74.40
2022-09-20T03:24:34.453Z,73.51
2022-09-20T03:27:03.761Z,73.31
2022-09-20T03:29:39.799Z,74.36
2022-09-20T03:32:27.317Z,74.38
2022-09-20T03:35:27.101Z,73.92
2022-09-20T03:38:11.789Z,73.95
2022-09-20T03:40:59.894Z,73.80
2022-09-20T03:43:56.858Z,74.25
2022-09-20T03:46:28.555Z,74.67
2022-09-20T03:49:38.172Z,74.66
2022-09-20T03:52:26.728Z,74.65
2022-09-20T03:55:13.988Z,73.89
2022-09-20T03:58:18.921Z,73.55
2022-09-20T04:00:51.326Z,73.52
2022-09-20T04:03:22.762Z,74.08
2022-09-20T04:06:09.476Z,74.11
2022-09-20T04:09:01.290Z,74.78
2022-09-20T04:12:05.370Z,73.19
2022-09-20T04:14:54.337Z,73.90
2022-09-20T04:17:27.322Z,73.60
2022-09-20T04:20:14.831Z,72.95
2022-09-20T04:22:44.589Z,72.82
2022-09-20T04:25:27.713Z,73.09
2022-09-20T04:27:59.889Z,73.27
2022-09-20T04:30:30.113Z,73.81
2022-09-20T04:33:01.787Z,73.64
2022-09-20T04:36:22.943Z,73.08
2022-09-20T04:39:10.778Z,74.47
2022-09-20T04:42:01.975Z,74.75
2022-09-20T04:44:31.465Z,73.98
2022-09-20T04:47:22.959Z,73.35
2022-09-20T04:50:11.528Z,73.75
2022-09-20T04:52:56.570Z,73.88
2022-09-20T04:55:49.070Z,73.77
2022-09-20T04:58:40.445Z,73.78
2022-09-20T05:01:16.913Z,73.70
2022-09-20T05:04:31.553Z,73.78
2022-09-20T05:07:23.841Z,74.24
2022-09-20T05:09:56.391Z,75.03
2022-09-20T05:12:54.458Z,76.11
2022-09-20T05:15:24.083Z,75.98
2022-09-20T05:18:12.694Z,76.09
2022-09-20T05:21:06.045Z,74.86
2022-09-20T05:23:56.902Z,75.18
2022-09-20T05:27:17.095Z,74.88
2022-09-20T05:29:57.339Z,74.74
2022-09-20T05:32:49.929Z,74.91
2022-09-20T05:35:25.293Z,74.53
2022-09-20T05:38:00.623Z,73.95
2022-09-20T05:40:33.548Z,73.06
2022-09-20T05:43:11.800Z,72.88
2022-09-20T05:46:03.067Z,72.83
2022-09-20T05:48:40.455Z,72.64
2022-09-20T05:51:30.881Z,72.41
2022-09-20T05:54:31.371Z,72.21
2022-09-20T05:57:35.462Z,72.51
2022-09-20T06:00:07.794Z,72.20
2022-09-20T06:02:48.173Z,72.65
2022-09-20T06:05:22.602Z,72.51
2022-09-20T06:08:08.848Z,72.56
2022-09-20T06:10:51.283Z,72.70
2022-09-20T06:13:33.469Z,72.74
2022-09-20T06:16:02.350Z,72.92
2022-09-20T06:18:40.175Z,73.36
2022-09-20T06:21:33.546Z,73.65
2022-09-20T06:24:02.319Z,73.70
2022-09-20T06:26:36.772Z,74.04
2022-09-20T06:29:09.510Z,74.91
2022-09-20T06:31:36.193Z,75.57
2022-09-20T06:34:07.177Z,76.61
2022-09-20T06:36:54.714Z,76.80
2022-09-20T06:40:21.311Z,77.12
2022-09-20T06:42:47.762Z,77.93
2022-09-20T06:45:14.235Z,78.19
2022-09-20T06:47:40.965Z,77.81
2022-09-20T06:50:15.003Z,78.29
2022-09-20T06:52:42.424Z,77.63
2022-09-20T06:55:18.987Z,77.99
2022-09-20T06:57:45.875Z,78.53
2022-09-20T07:00:15.796Z,78.66
2022-09-20T07:02:43.475Z,78.58
2022-09-20T07:05:18.074Z,78.67
2022-09-20T07:07:44.898Z,78.98
2022-09-20T07:10:12.283Z,78.80
2022-09-20T07:12:39.087Z,79.00
2022-09-20T07:15:06.245Z,79.58
2022-09-20T07:17:33.760Z,79.73
2022-09-20T07:20:00.459Z,80.02
2022-09-20T07:22:27.702Z,80.69
2022-09-20T07:24:54.099Z,80.70
2022-09-20T07:27:21.190Z,81.18
2022-09-20T07:29:47.652Z,80.92
2022-09-20T07:32:15.283Z,80.73
2022-09-20T07:34:41.705Z,80.28
2022-09-20T07:37:08.094Z,79.91
2022-09-20T07:39:34.539Z,79.09
2022-09-20T07:42:01.761Z,78.82
2022-09-20T07:44:28.340Z,78.44
2022-09-20T07:46:57.868Z,78.33
2022-09-20T07:49:25.983Z,77.73
2022-09-20T07:51:53.882Z,77.12
2022-09-20T07:54:20.751Z,76.70
2022-09-20T07:56:47.739Z,76.32
2022-09-20T07:59:14.738Z,76.33
2022-09-20T08:01:42.272Z,75.83
2022-09-20T08:04:09.859Z,74.90
2022-09-20T08:06:40.012Z,75.02
2022-09-20T08:09:10.950Z,74.79
2022-09-20T08:11:39.700Z,74.18
2022-09-20T08:14:08.842Z,73.99
2022-09-20T08:16:48.148Z,73.32
2022-09-20T08:19:20.819Z,72.55
2022-09-20T08:21:47.795Z,72.66
2022-09-20T08:24:16.407Z,72.72
2022-09-20T08:26:43.763Z,70.52
2022-09-20T08:29:11.542Z,68.79
2022-09-20T08:31:42.125Z,68.45
2022-09-20T08:34:11.006Z,66.85
2022-09-20T08:36:41.383Z,65.61
2022-09-20T08:41:56.290Z,63.90
2022-09-20T08:44:59.446Z,62.47
2022-09-20T08:47:33.095Z,62.50
2022-09-20T08:50:09.019Z,62.86
2022-09-20T08:52:39.726Z,62.34
2022-09-20T08:55:18.504Z,62.34
2022-09-20T08:57:49.184Z,59.89
2022-09-20T09:00:18.951Z,58.55
2022-09-20T09:02:46.074Z,59.36
2022-09-20T09:05:52.793Z,58.63
2022-09-20T09:08:26.106Z,57.72
2022-09-20T09:10:56.678Z,57.54
2022-09-20T09:13:48.831Z,56.25
2022-09-20T09:16:22.664Z,56.77
2022-09-20T09:18:51.572Z,57.47
2022-09-20T09:21:24.078Z,56.81
2022-09-20T09:24:03.321Z,55.62
2022-09-20T09:26:36.976Z,56.50
2022-09-20T09:29:20.995Z,56.73
2022-09-20T09:31:50.264Z,55.94
2022-09-20T09:34:38.828Z,57.54
2022-09-20T09:37:05.385Z,57.39
2022-09-20T09:39:35.399Z,58.00
2022-09-20T09:42:19.963Z,58.75
2022-09-20T09:44:50.202Z,59.05
2022-09-20T09:47:31.119Z,56.97
2022-09-20T09:50:02.634Z,55.49
2022-09-20T09:52:33.306Z,55.09
2022-09-20T09:55:04.574Z,54.61
2022-09-20T09:57:54.174Z,56.01
2022-09-20T10:00:23.055Z,55.55
2022-09-20T10:03:17.384Z,55.29
2022-09-20T10:06:18.185Z,55.48
2022-09-20T10:09:02.918Z,55.51
2022-09-20T10:11:45.374Z,55.70
2022-09-20T10:14:50.298Z,55.37
2022-09-20T10:17:23.286Z,55.39
2022-09-20T10:20:35.930Z,55.12
2022-09-20T10:26:29.642Z,55.00
2022-09-20T10:29:05.329Z,55.42
2022-09-20T10:31:31.727Z,55.24
2022-09-20T10:34:17.305Z,53.97
2022-09-20T10:36:53.177Z,54.39
2022-09-20T10:39:33.268Z,54.72
2022-09-20T10:42:21.174Z,52.99
2022-09-20T10:45:02.433Z,53.22
2022-09-20T10:47:46.747Z,53.19
2022-09-20T10:50:29.641Z,50.75
2022-09-20T10:53:17.687Z,50.02
2022-09-20T10:55:59.786Z,51.10
2022-09-20T10:58:41.245Z,50.57
2022-09-20T11:01:34.496Z,51.31
2022-09-20T11:04:32.390Z,51.59
2022-09-20T11:07:19.163Z,50.33
2022-09-20T11:09:51.714Z,48.45
2022-09-20T11:12:42.526Z,51.34
2022-09-20T11:15:17.891Z,48.83
2022-09-20T11:18:12.825Z,49.23
2022-09-20T11:20:47.174Z,48.42
2022-09-20T11:23:29.160Z,49.50
2022-09-20T11:25:59.822Z,49.79
2022-09-20T11:28:37.426Z,50.38
2022-09-20T11:31:30.166Z,50.03
2022-09-20T11:34:25.822Z,49.47
2022-09-20T11:36:54.479Z,49.44
2022-09-20T11:39:33.251Z,49.02
2022-09-20T11:42:03.198Z,49.96
2022-09-20T11:44:29.847Z,50.12
2022-09-20T11:47:05.171Z,50.45
2022-09-20T11:49:56.541Z,48.89
2022-09-20T11:53:15.253Z,50.18
2022-09-20T11:56:02.227Z,50.41
2022-09-20T11:58:28.870Z,51.31
2022-09-20T12:00:58.506Z,50.24
2022-09-20T12:03:33.366Z,50.67
2022-09-20T12:06:02.883Z,50.81
2022-09-20T12:08:31.743Z,51.36
2022-09-20T12:11:10.605Z,50.86
2022-09-20T12:13:39.673Z,50.99
2022-09-20T12:16:12.566Z,50.47
2022-09-20T12:18:46.793Z,49.99
2022-09-20T12:21:16.314Z,49.98
2022-09-20T12:23:44.489Z,50.13
2022-09-20T12:26:22.782Z,50.15
2022-09-20T12:28:49.892Z,50.75
2022-09-20T12:31:19.546Z,50.40
2022-09-20T12:33:57.463Z,48.47
2022-09-20T12:36:25.016Z,48.96
2022-09-20T12:38:57.553Z,47.04
2022-09-20T12:41:28.720Z,47.50
2022-09-20T12:44:03.120Z,44.89
2022-09-20T12:46:37.075Z,44.26
2022-09-20T12:49:40.109Z,44.55
2022-09-20T12:52:41.348Z,47.26
2022-09-20T12:55:11.317Z,47.20
2022-09-20T12:57:39.400Z,48.87
2022-09-20T13:00:08.309Z,49.86
2022-09-20T13:02:57.865Z,49.95
2022-09-20T13:05:40.298Z,49.98
2022-09-20T13:08:24.620Z,50.28
2022-09-20T13:11:00.873Z,50.11
2022-09-20T13:13:42.400Z,50.24
2022-09-20T13:16:39.480Z,50.72
2022-09-20T13:19:11.985Z,50.56
2022-09-20T13:21:41.552Z,51.45
2022-09-20T13:24:15.895Z,50.11
2022-09-20T13:26:45.879Z,49.11
2022-09-20T13:29:35.097Z,51.95
2022-09-20T13:32:27.534Z,51.50
2022-09-20T13:35:12.015Z,50.70
2022-09-20T13:37:46.307Z,51.51
2022-09-20T13:40:33.559Z,50.43
2022-09-20T13:43:22.520Z,49.90
2022-09-20T13:45:53.725Z,50.86
2022-09-20T13:48:24.682Z,50.83
2022-09-20T13:50:53.644Z,51.53
2022-09-20T13:53:39.756Z,51.86
2022-09-20T13:56:16.373Z,51.92
2022-09-20T13:58:42.906Z,52.05
2022-09-20T14:01:23.204Z,52.88
2022-09-20T14:03:49.905Z,52.84
2022-09-20T14:06:16.576Z,51.82
2022-09-20T14:08:51.235Z,51.99
2022-09-20T14:11:22.616Z,52.29
2022-09-20T14:13:52.331Z,52.39
2022-09-20T14:16:24.400Z,51.29
2022-09-20T14:18:51.233Z,48.77
2022-09-20T14:21:22.602Z,50.39
2022-09-20T14:24:02.561Z,49.23
2022-09-20T14:26:36.232Z,48.86
2022-09-20T14:29:33.637Z,48.14
2022-09-20T14:32:07.052Z,49.30
2022-09-20T14:34:41.018Z,49.19
2022-09-20T14:37:16.301Z,48.20
2022-09-20T14:39:52.883Z,49.34
2022-09-20T14:42:43.901Z,47.38
2022-09-20T14:45:51.781Z,46.29
2022-09-20T14:48:18.269Z,44.16
2022-09-20T14:50:46.313Z,45.10
2022-09-20T14:53:12.681Z,45.51
2022-09-20T14:55:55.730Z,42.73
2022-09-20T14:58:24.654Z,40.61
2022-09-20T15:00:56.831Z,42.09
2022-09-20T15:03:27.490Z,42.12
2022-09-20T15:05:54.204Z,44.09
2022-09-20T15:08:20.661Z,45.89
2022-09-20T15:10:47.707Z,46.29
2022-09-20T15:13:14.510Z,47.05
2022-09-20T15:15:41.812Z,46.70
2022-09-20T15:18:31.999Z,47.09
2022-09-20T15:20:58.377Z,47.89
2022-09-20T15:23:25.123Z,48.08
2022-09-20T15:25:53.751Z,46.14
2022-09-20T15:28:20.573Z,44.86
2022-09-20T15:30:49.994Z,45.46
2022-09-20T15:33:17.465Z,43.30
2022-09-20T15:35:44.860Z,43.27
2022-09-20T15:38:12.134Z,42.71
2022-09-20T15:40:43.013Z,41.29
2022-09-20T15:43:13.279Z,40.76
2022-09-20T15:45:51.591Z,41.44
2022-09-20T15:48:21.849Z,41.10
2022-09-20T15:50:58.458Z,41.40
2022-09-20T15:53:25.133Z,42.90
2022-09-20T15:55:52.253Z,45.92
2022-09-20T15:58:18.742Z,46.25
2022-09-20T16:00:45.824Z,45.84
2022-09-20T16:03:12.975Z,48.12
2022-09-20T16:05:39.577Z,48.03
2022-09-20T16:08:06.266Z,48.24
2022-09-20T16:10:32.916Z,49.53
2022-09-20T16:12:59.368Z,48.23
2022-09-20T16:15:25.928Z,48.93
2022-09-20T16:18:11.096Z,49.22
2022-09-20T16:20:37.598Z,49.89
2022-09-20T16:23:04.338Z,50.14
2022-09-20T16:25:30.795Z,51.12
2022-09-20T16:27:58.861Z,50.05
2022-09-20T16:30:26.092Z,50.20
2022-09-20T16:32:52.950Z,50.38
2022-09-20T16:35:19.425Z,50.96
2022-09-20T16:37:46.027Z,50.89
2022-09-20T16:40:14.165Z,50.37
2022-09-20T16:42:41.412Z,51.41
2022-09-20T16:45:08.115Z,51.25
2022-09-20T16:47:34.663Z,51.64
2022-09-20T16:50:02.295Z,52.39
2022-09-20T16:52:28.750Z,52.60
2022-09-20T16:54:56.018Z,52.96
2022-09-20T16:57:23.130Z,53.23
2022-09-20T16:59:51.810Z,53.49
2022-09-20T17:02:18.317Z,53.76
2022-09-20T17:04:44.919Z,54.64
2022-09-20T17:07:11.366Z,54.73
2022-09-20T17:09:37.743Z,55.19
2022-09-20T17:12:06.604Z,55.49
2022-09-20T17:14:32.984Z,55.03
2022-09-20T17:16:59.401Z,55.93
2022-09-20T17:19:26.566Z,55.30
2022-09-20T17:21:53.027Z,54.57
2022-09-20T17:24:20.739Z,55.00
2022-09-20T17:26:47.837Z,55.68
2022-09-20T17:29:16.877Z,56.19
2022-09-20T17:31:50.089Z,56.13
2022-09-20T17:34:21.623Z,56.70
2022-09-20T17:36:49.133Z,57.35
2022-09-20T17:39:16.431Z,56.97
2022-09-20T17:41:45.710Z,56.85
2022-09-20T17:44:12.657Z,56.90
2022-09-20T17:46:40.947Z,56.95
2022-09-20T17:49:16.471Z,57.58
2022-09-20T17:51:45.157Z,57.84
2022-09-20T17:54:15.374Z,58.44
2022-09-20T17:56:47.532Z,58.71
2022-09-20T17:59:18.036Z,59.03
2022-09-20T18:01:46.198Z,58.83
2022-09-20T18:04:13.137Z,59.14
2022-09-20T18:06:46.861Z,58.79
2022-09-20T18:09:18.427Z,59.52
2022-09-20T18:11:48.946Z,59.99
2022-09-20T18:14:17.796Z,59.27
2022-09-20T18:16:44.328Z,59.52
2022-09-20T18:19:11.314Z,59.84
2022-09-20T18:21:40.707Z,59.94
2022-09-20T18:24:09.211Z,60.41
2022-09-20T18:26:36.791Z,60.53
2022-09-20T18:29:05.402Z,60.41
2022-09-20T18:31:37.152Z,60.98
2022-09-20T18:34:09.779Z,61.22
2022-09-20T18:36:41.847Z,61.23
2022-09-20T18:39:08.742Z,61.04
2022-09-20T18:41:37.521Z,61.44
2022-09-20T18:44:07.503Z,61.42
2022-09-20T18:46:37.913Z,61.28
2022-09-20T18:49:07.294Z,61.22
2022-09-20T18:51:39.067Z,61.46
2022-09-20T18:54:06.164Z,61.43
2022-09-20T18:56:34.797Z,61.87
2022-09-20T18:59:04.056Z,61.93
2022-09-20T19:01:57.953Z,62.79
2022-09-20T19:04:30.240Z,62.98
2022-09-20T19:07:24.377Z,62.88
2022-09-20T19:10:05.700Z,63.58
2022-09-20T19:12:48.277Z,63.58
2022-09-20T19:15:49.982Z,63.51
2022-09-20T19:18:58.604Z,63.89
2022-09-20T19:21:56.348Z,64.36
2022-09-20T19:24:42.025Z,64.94
2022-09-20T19:27:12.975Z,64.60
2022-09-20T19:29:40.068Z,64.85
2022-09-20T19:32:14.894Z,64.96
2022-09-20T19:34:44.319Z,64.62
2022-09-20T19:37:31.851Z,64.70
2022-09-20T19:40:16.549Z,65.49
2022-09-20T19:43:05.220Z,65.70
2022-09-20T19:45:55.610Z,65.56
2022-09-20T19:48:40.154Z,65.62
2022-09-20T19:51:11.337Z,66.18
2022-09-20T19:53:39.189Z,66.12
2022-09-20T19:56:27.454Z,66.32
2022-09-20T19:58:55.974Z,66.19
2022-09-20T20:01:26.339Z,66.09
2022-09-20T20:03:54.130Z,65.63
2022-09-20T20:06:27.215Z,66.36
2022-09-20T20:09:06.945Z,66.01
2022-09-20T20:11:46.020Z,66.21
2022-09-20T20:14:48.874Z,66.39
2022-09-20T20:17:52.582Z,66.98
2022-09-20T20:20:30.101Z,66.91
2022-09-20T20:23:14.404Z,66.62
2022-09-20T20:25:51.443Z,67.17
2022-09-20T20:28:17.823Z,67.21
2022-09-20T20:30:44.215Z,66.98
2022-09-20T20:33:15.706Z,67.27
2022-09-20T20:35:42.146Z,67.11
2022-09-20T20:38:10.462Z,67.60
2022-09-20T20:40:37.791Z,67.34
2022-09-20T20:43:06.015Z,67.67
2022-09-20T20:45:32.393Z,67.58
2022-09-20T20:47:59.161Z,67.53
2022-09-20T20:50:27.015Z,67.44
2022-09-20T20:52:57.275Z,67.89
2022-09-20T20:55:23.965Z,67.80
2022-09-20T20:57:57.973Z,68.10
2022-09-20T21:00:28.118Z,68.04
2022-09-20T21:02:59.822Z,68.33
2022-09-20T21:05:27.994Z,68.10
2022-09-20T21:07:55.013Z,67.70
2022-09-20T21:10:22.240Z,67.96
2022-09-20T21:12:50.305Z,68.54
2022-09-20T21:15:21.264Z,68.52
2022-09-20T21:17:54.884Z,68.30
2022-09-20T21:20:24.169Z,68.23
2022-09-20T21:22:50.550Z,68.92
2022-09-20T21:25:16.930Z,68.53
2022-09-20T21:27:43.305Z,68.69
2022-09-20T21:30:10.345Z,68.60
2022-09-20T21:32:37.151Z,69.06
2022-09-20T21:35:03.725Z,69.08
2022-09-20T21:37:30.458Z,69.44
2022-09-20T21:39:56.870Z,69.13
2022-09-20T21:42:23.373Z,69.28
2022-09-20T21:44:51.547Z,69.12
2022-09-20T21:47:20.130Z,69.19
2022-09-20T21:49:47.482Z,69.66
2022-09-20T21:52:14.187Z,69.65
2022-09-20T21:54:40.650Z,69.63
2022-09-20T21:57:07.360Z,70.03
2022-09-20T21:59:33.787Z,70.00
2022-09-20T22:02:00.162Z,69.95
2022-09-20T22:04:29.105Z,70.12
2022-09-20T22:06:55.549Z,70.53
2022-09-20T22:09:23.995Z,70.25
2022-09-20T22:11:50.471Z,70.50
2022-09-20T22:14:19.469Z,70.45
2022-09-20T22:16:47.495Z,70.38
2022-09-20T22:19:16.821Z,69.58
2022-09-20T22:21:45.970Z,70.04
2022-09-20T22:24:13.522Z,70.14
2022-09-20T22:26:48.352Z,70.26
2022-09-20T22:29:14.896Z,70.82
2022-09-20T22:31:45.388Z,70.65
2022-09-20T22:34:15.640Z,70.38
2022-09-20T22:36:42.258Z,70.75
2022-09-20T22:39:11.283Z,70.48
2022-09-20T22:41:39.310Z,70.67
2022-09-20T22:44:05.709Z,70.81
2022-09-20T22:46:32.943Z,70.86
2022-09-20T22:48:59.405Z,70.72
2022-09-20T22:51:28.236Z,70.93
2022-09-20T22:53:54.971Z,70.64
2022-09-20T22:56:28.776Z,70.59
2022-09-20T22:59:07.387Z,71.05
2022-09-20T23:01:36.289Z,71.23
2022-09-20T23:04:09.683Z,70.47
2022-09-20T23:06:42.121Z,70.41
2022-09-20T23:09:10.987Z,70.59
2022-09-20T23:11:39.121Z,70.40
2022-09-20T23:14:05.976Z,70.43
2022-09-20T23:16:35.035Z,70.60
2022-09-20T23:19:03.105Z,70.42
2022-09-20T23:21:30.141Z,70.72
2022-09-20T23:24:01.414Z,70.63
2022-09-20T23:26:29.809Z,70.94
2022-09-20T23:29:02.660Z,70.31
2022-09-20T23:31:30.622Z,70.60
2022-09-20T23:33:59.433Z,70.45
2022-09-20T23:36:28.374Z,70.24
2022-09-20T23:38:55.801Z,70.38
2022-09-20T23:41:24.365Z,70.49
2022-09-20T23:43:51.071Z,70.63
2022-09-20T23:46:19.438Z,71.03
2022-09-20T23:48:46.495Z,70.92
2022-09-20T23:51:16.586Z,70.76
2022-09-20T23:53:43.427Z,70.62
2022-09-20T23:56:10.810Z,70.73
2022-09-20T23:58:38.810Z,70.74
